Time,TemperatureF,DewpointF,PressureIn,WindDirection,WindDirectionDegrees,WindSpeedMPH,WindSpeedGustMPH,Humidity,HourlyPrecipIn,Conditions,Clouds,dailyrainin,SoftwareType,DateUTC
2013-10-30 00:01:00,46.0,38.2,30.15,SSE,158,0.0,0.0,74,0.00,,---,0.00,VWS V14.00,2013-10-30 04:01:00,
2013-10-30 00:02:00,45.9,38.0,30.15,SSE,158,0.0,0.0,74,0.00,,---,0.00,VWS V14.00,2013-10-30 04:02:00,
2013-10-30 00:05:00,45.9,38.0,30.15,SSE,158,0.0,0.0,74,0.00,,---,0.00,VWS V14.00,2013-10-30 04:05:00,
2013-10-30 00:08:00,45.9,38.0,30.15,SSE,158,0.0,0.0,74,0.00,,---,0.00,VWS V14.00,2013-10-30 04:08:00,
2013-10-30 00:09:00,45.9,38.0,30.15,SSE,158,0.0,0.0,74,0.00,,---,0.00,VWS V14.00,2013-10-30 04:09:00,
2013-10-30 00:14:00,45.5,38.0,30.15,SSE,158,0.0,0.0,75,0.00,,---,0.00,VWS V14.00,2013-10-30 04:14:00,
2013-10-30 00:19:00,45.9,38.4,30.15,SSE,158,0.0,0.0,75,0.00,,---,0.00,VWS V14.00,2013-10-30 04:19:00,
2013-10-30 00:25:00,45.9,38.4,30.15,SSE,158,0.0,0.0,75,0.00,,---,0.00,VWS V14.00,2013-10-30 04:25:00,
2013-10-30 00:31:00,45.9,38.4,30.15,SSE,158,0.0,0.0,75,0.00,,---,0.00,VWS V14.00,2013-10-30 04:31:00,
2013-10-30 00:36:00,46.0,38.6,30.15,ESE,112,0.0,0.0,75,0.00,,---,0.00,VWS V14.00,2013-10-30 04:36:00,
2013-10-30 00:42:00,46.0,38.2,30.15,ESE,112,0.0,0.0,74,0.00,,---,0.00,VWS V14.00,2013-10-30 04:42:00,
2013-10-30 00:47:00,46.0,38.2,30.15,ESE,112,0.0,0.0,74,0.00,,---,0.00,VWS V14.00,2013-10-30 04:47:00,
2013-10-30 00:53:00,46.0,38.2,30.15,ESE,112,0.0,0.0,74,0.00,,---,0.00,VWS V14.00,2013-10-30 04:53:00,
2013-10-30 00:58:00,46.0,38.2,30.15,ESE,112,0.0,0.0,74,0.00,,---,0.00,VWS V14.00,2013-10-30 04:58:00,
2013-10-30 01:04:00,46.0,38.2,30.15,ESE,112,0.0,0.0,74,0.00,,---,0.00,VWS V14.00,2013-10-30 05:04:00,
2013-10-30 01:09:00,45.9,37.7,30.12,ESE,112,0.0,0.0,73,0.00,,---,0.00,VWS V14.00,2013-10-30 05:09:00,
2013-10-30 01:14:00,45.5,37.4,30.12,ESE,112,0.0,0.0,73,0.00,,---,0.00,VWS V14.00,2013-10-30 05:14:00,
2013-10-30 01:19:00,45.5,37.4,30.12,ESE,112,0.0,0.0,73,0.00,,---,0.00,VWS V14.00,2013-10-30 05:19:00,
2013-10-30 01:26:00,45.3,37.5,30.12,ESE,112,0.0,0.0,74,0.00,,---,0.00,VWS V14.00,2013-10-30 05:26:00,
2013-10-30 01:31:00,45.1,37.4,30.12,ESE,112,0.0,0.0,74,0.00,,---,0.00,VWS V14.00,2013-10-30 05:31:00,
2013-10-30 01:37:00,45.3,37.5,30.12,ESE,112,0.0,0.0,74,0.00,,---,0.00,VWS V14.00,2013-10-30 05:37:00,
2013-10-30 01:42:00,45.1,37.4,30.12,ESE,112,0.0,0.0,74,0.00,,---,0.00,VWS V14.00,2013-10-30 05:42:00,
2013-10-30 01:48:00,45.1,37.4,30.12,ESE,112,0.0,0.0,74,0.00,,---,0.00,VWS V14.00,2013-10-30 05:48:00,
2013-10-30 01:53:00,45.1,37.4,30.12,ESE,112,0.0,0.0,74,0.00,,---,0.00,VWS V14.00,2013-10-30 05:53:00,
2013-10-30 01:58:00,45.0,37.5,30.12,ESE,112,0.0,0.0,75,0.00,,---,0.00,VWS V14.00,2013-10-30 05:58:00,
2013-10-30 02:04:00,45.1,37.7,30.12,ESE,112,0.0,0.0,75,0.00,,---,0.00,VWS V14.00,2013-10-30 06:04:00,
2013-10-30 02:09:00,45.1,37.7,30.12,ESE,112,0.0,0.0,75,0.00,,---,0.00,VWS V14.00,2013-10-30 06:09:00,
2013-10-30 02:16:00,45.0,37.5,30.12,ESE,112,0.0,0.0,75,0.00,,---,0.00,VWS V14.00,2013-10-30 06:16:00,
2013-10-30 02:21:00,45.0,37.5,30.12,ESE,112,0.0,0.0,75,0.00,,---,0.00,VWS V14.00,2013-10-30 06:21:00,
2013-10-30 02:27:00,45.0,37.5,30.12,ESE,112,1.3,1.3,75,0.00,,---,0.00,VWS V14.00,2013-10-30 06:27:00,
2013-10-30 02:32:00,45.0,37.5,30.12,ESE,112,0.0,0.0,75,0.00,,---,0.00,VWS V14.00,2013-10-30 06:32:00,
2013-10-30 02:39:00,44.8,37.7,30.12,ESE,112,0.0,0.0,76,0.00,,---,0.00,VWS V14.00,2013-10-30 06:39:00,
2013-10-30 02:44:00,44.8,37.7,30.12,ESE,112,0.0,0.0,76,0.00,,---,0.00,VWS V14.00,2013-10-30 06:44:00,
2013-10-30 02:50:00,44.6,37.5,30.12,ESE,112,0.0,0.0,76,0.00,,---,0.00,VWS V14.00,2013-10-30 06:50:00,
2013-10-30 02:55:00,44.6,37.5,30.12,ESE,112,0.0,0.0,76,0.00,,---,0.00,VWS V14.00,2013-10-30 06:55:00,
2013-10-30 03:02:00,44.4,37.3,30.12,ESE,112,0.0,0.0,76,0.00,,---,0.00,VWS V14.00,2013-10-30 07:02:00,
2013-10-30 03:07:00,44.4,37.3,30.12,ESE,112,0.0,0.0,76,0.00,,---,0.00,VWS V14.00,2013-10-30 07:07:00,
2013-10-30 03:12:00,44.4,37.3,30.12,ESE,112,0.0,0.0,76,0.00,,---,0.00,VWS V14.00,2013-10-30 07:12:00,
2013-10-30 03:19:00,44.4,37.3,30.12,ESE,112,0.0,0.0,76,0.00,,---,0.00,VWS V14.00,2013-10-30 07:19:00,
2013-10-30 03:24:00,44.2,37.5,30.12,ESE,112,0.0,0.0,77,0.00,,---,0.00,VWS V14.00,2013-10-30 07:24:00,
2013-10-30 03:30:00,44.2,37.5,30.12,ESE,112,0.0,0.0,77,0.00,,---,0.00,VWS V14.00,2013-10-30 07:30:00,
2013-10-30 03:35:00,44.2,37.5,30.12,ESE,112,0.0,0.0,77,0.00,,---,0.00,VWS V14.00,2013-10-30 07:35:00,
2013-10-30 03:41:00,44.2,37.5,30.09,ESE,112,0.0,0.0,77,0.00,,---,0.00,VWS V14.00,2013-10-30 07:41:00,
2013-10-30 03:46:00,44.2,37.5,30.09,ESE,112,0.0,0.0,77,0.00,,---,0.00,VWS V14.00,2013-10-30 07:46:00,
2013-10-30 03:51:00,44.1,37.3,30.09,ESE,112,0.0,0.0,77,0.00,,---,0.00,VWS V14.00,2013-10-30 07:51:00,
2013-10-30 03:56:00,44.2,37.8,30.09,ESE,112,0.0,0.0,78,0.00,,---,0.00,VWS V14.00,2013-10-30 07:56:00,
2013-10-30 04:03:00,44.2,37.8,30.09,ESE,112,0.0,0.0,78,0.00,,---,0.00,VWS V14.00,2013-10-30 08:03:00,
2013-10-30 04:09:00,44.6,37.8,30.09,ESE,112,0.0,0.0,77,0.00,,---,0.00,VWS V14.00,2013-10-30 08:09:00,
2013-10-30 04:14:00,44.6,37.8,30.09,ESE,112,0.0,0.0,77,0.00,,---,0.00,VWS V14.00,2013-10-30 08:14:00,
2013-10-30 04:19:00,44.6,37.8,30.09,ESE,112,0.0,0.0,77,0.00,,---,0.00,VWS V14.00,2013-10-30 08:19:00,
2013-10-30 04:25:00,44.8,38.0,30.09,ESE,112,0.0,0.0,77,0.00,,---,0.00,VWS V14.00,2013-10-30 08:25:00,
2013-10-30 04:30:00,44.8,38.0,30.09,ESE,112,0.0,0.0,77,0.00,,---,0.00,VWS V14.00,2013-10-30 08:30:00,
2013-10-30 04:35:00,44.6,37.8,30.09,ESE,112,0.0,0.0,77,0.00,,---,0.00,VWS V14.00,2013-10-30 08:35:00,
2013-10-30 04:41:00,44.6,37.8,30.09,ESE,112,0.0,0.0,77,0.00,,---,0.00,VWS V14.00,2013-10-30 08:41:00,
2013-10-30 04:46:00,44.6,37.8,30.09,ESE,112,0.0,0.0,77,0.00,,---,0.00,VWS V14.00,2013-10-30 08:46:00,
2013-10-30 04:51:00,44.6,38.2,30.09,ESE,112,0.0,0.0,78,0.00,,---,0.00,VWS V14.00,2013-10-30 08:51:00,
2013-10-30 04:57:00,44.4,38.0,30.09,ESE,112,0.0,0.0,78,0.00,,---,0.00,VWS V14.00,2013-10-30 08:57:00,
2013-10-30 05:02:00,44.1,37.7,30.09,ESE,112,0.0,0.9,78,0.00,,---,0.00,VWS V14.00,2013-10-30 09:02:00,
2013-10-30 05:07:00,44.1,37.7,30.09,ESE,112,0.0,0.0,78,0.00,,---,0.00,VWS V14.00,2013-10-30 09:07:00,
2013-10-30 05:12:00,44.1,38.0,30.09,ESE,112,0.0,0.0,79,0.00,,---,0.00,VWS V14.00,2013-10-30 09:12:00,
2013-10-30 05:18:00,44.1,37.7,30.09,ESE,112,0.0,0.0,78,0.00,,---,0.00,VWS V14.00,2013-10-30 09:18:00,
2013-10-30 05:23:00,43.9,37.5,30.06,ESE,112,0.0,0.0,78,0.00,,---,0.00,VWS V14.00,2013-10-30 09:23:00,
2013-10-30 05:29:00,43.7,37.3,30.06,ESE,112,0.0,0.0,78,0.00,,---,0.00,VWS V14.00,2013-10-30 09:29:00,
2013-10-30 05:34:00,43.7,37.6,30.06,ESE,112,0.0,0.0,79,0.00,,---,0.00,VWS V14.00,2013-10-30 09:34:00,
2013-10-30 05:40:00,43.7,37.6,30.06,ESE,112,0.0,0.0,79,0.00,,---,0.00,VWS V14.00,2013-10-30 09:40:00,
2013-10-30 05:46:00,43.5,37.1,30.06,ESE,112,0.0,0.0,78,0.00,,---,0.00,VWS V14.00,2013-10-30 09:46:00,
2013-10-30 05:51:00,43.3,37.0,30.06,ESE,112,0.0,0.0,78,0.00,,---,0.00,VWS V14.00,2013-10-30 09:51:00,
2013-10-30 05:56:00,43.2,36.8,30.06,ESE,112,0.0,0.0,78,0.00,,---,0.00,VWS V14.00,2013-10-30 09:56:00,
2013-10-30 06:02:00,43.3,37.0,30.06,ESE,112,1.1,1.1,78,0.00,,---,0.00,VWS V14.00,2013-10-30 10:02:00,
2013-10-30 06:07:00,43.3,37.0,30.06,ESE,112,0.0,0.0,78,0.00,,---,0.00,VWS V14.00,2013-10-30 10:07:00,
2013-10-30 06:13:00,43.3,37.0,30.06,ESE,112,0.0,0.0,78,0.00,,---,0.00,VWS V14.00,2013-10-30 10:13:00,
2013-10-30 06:19:00,43.3,37.3,30.06,ESE,112,1.1,1.1,79,0.00,,---,0.00,VWS V14.00,2013-10-30 10:19:00,
2013-10-30 06:25:00,43.7,38.0,30.06,ESE,112,0.0,0.0,80,0.00,,---,0.00,VWS V14.00,2013-10-30 10:25:00,
2013-10-30 06:30:00,43.5,37.8,30.06,ESE,112,0.0,0.0,80,0.00,,---,0.00,VWS V14.00,2013-10-30 10:30:00,
2013-10-30 06:35:00,43.5,37.5,30.06,ESE,112,0.0,0.0,79,0.00,,---,0.00,VWS V14.00,2013-10-30 10:35:00,
2013-10-30 06:42:00,43.5,37.5,30.09,ESE,112,0.0,0.0,79,0.00,,---,0.00,VWS V14.00,2013-10-30 10:42:00,
2013-10-30 06:47:00,43.5,37.5,30.09,ESE,112,0.0,0.0,79,0.00,,---,0.00,VWS V14.00,2013-10-30 10:47:00,
2013-10-30 06:53:00,43.7,37.6,30.06,ESE,112,0.0,0.0,79,0.00,,---,0.00,VWS V14.00,2013-10-30 10:53:00,
2013-10-30 06:58:00,43.9,37.8,30.06,ESE,112,0.0,0.0,79,0.00,,---,0.00,VWS V14.00,2013-10-30 10:58:00,
2013-10-30 07:04:00,44.1,38.3,30.06,ESE,112,0.9,1.3,80,0.00,,---,0.00,VWS V14.00,2013-10-30 11:04:00,
2013-10-30 07:09:00,44.2,38.5,30.06,ESE,112,1.1,1.1,80,0.00,,---,0.00,VWS V14.00,2013-10-30 11:09:00,
2013-10-30 07:14:00,44.1,38.0,30.06,ESE,112,0.0,0.0,79,0.00,,---,0.00,VWS V14.00,2013-10-30 11:14:00,
2013-10-30 07:20:00,43.5,37.5,30.06,ESE,112,0.0,0.0,79,0.00,,---,0.00,VWS V14.00,2013-10-30 11:20:00,
2013-10-30 07:25:00,43.3,37.0,30.06,ESE,112,0.0,0.0,78,0.00,,---,0.00,VWS V14.00,2013-10-30 11:25:00,
2013-10-30 07:30:00,43.5,37.5,30.06,ESE,112,1.3,1.3,79,0.00,,---,0.00,VWS V14.00,2013-10-30 11:30:00,
2013-10-30 07:36:00,43.3,37.3,30.06,ESE,112,0.0,0.0,79,0.00,,---,0.00,VWS V14.00,2013-10-30 11:36:00,
2013-10-30 07:42:00,43.5,37.1,30.06,ESE,112,0.0,0.0,78,0.00,,---,0.00,VWS V14.00,2013-10-30 11:42:00,
2013-10-30 07:48:00,43.7,37.6,30.06,ESE,112,0.0,0.0,79,0.00,,---,0.00,VWS V14.00,2013-10-30 11:48:00,
2013-10-30 07:53:00,44.2,38.5,30.06,ESE,112,0.0,0.0,80,0.00,,---,0.00,VWS V14.00,2013-10-30 11:53:00,
2013-10-30 07:59:00,44.4,38.7,30.06,ESE,112,0.0,0.0,80,0.00,,---,0.00,VWS V14.00,2013-10-30 11:59:00,
2013-10-30 08:04:00,44.4,39.0,30.06,ESE,112,0.0,0.0,81,0.00,,---,0.00,VWS V14.00,2013-10-30 12:04:00,
2013-10-30 08:09:00,44.8,39.3,30.09,ESE,112,0.0,0.0,81,0.00,,---,0.00,VWS V14.00,2013-10-30 12:09:00,
2013-10-30 08:14:00,45.1,39.7,30.09,ESE,112,0.0,0.0,81,0.00,,---,0.00,VWS V14.00,2013-10-30 12:14:00,
2013-10-30 08:21:00,45.5,40.0,30.09,ESE,112,0.0,0.0,81,0.00,,---,0.00,VWS V14.00,2013-10-30 12:21:00,
2013-10-30 08:27:00,46.0,40.2,30.09,ESE,112,0.9,0.9,80,0.00,,---,0.00,VWS V14.00,2013-10-30 12:27:00,
2013-10-30 08:32:00,46.4,40.6,30.09,ESE,112,0.0,0.0,80,0.00,,---,0.00,VWS V14.00,2013-10-30 12:32:00,
2013-10-30 08:38:00,46.8,40.9,30.09,ESE,112,0.0,0.0,80,0.00,,---,0.00,VWS V14.00,2013-10-30 12:38:00,
2013-10-30 08:43:00,47.3,41.8,30.09,ESE,112,0.0,0.0,81,0.00,,---,0.00,VWS V14.00,2013-10-30 12:43:00,
2013-10-30 08:48:00,47.7,42.1,30.09,ESE,112,0.0,1.1,81,0.00,,---,0.00,VWS V14.00,2013-10-30 12:48:00,
2013-10-30 08:53:00,48.0,42.8,30.09,ESE,112,1.3,1.3,82,0.00,,---,0.00,VWS V14.00,2013-10-30 12:53:00,
2013-10-30 08:59:00,48.2,42.7,30.09,ESE,112,0.0,0.0,81,0.00,,---,0.00,VWS V14.00,2013-10-30 12:59:00,
2013-10-30 09:05:00,48.6,42.7,30.09,ESE,112,0.0,1.1,80,0.00,,---,0.00,VWS V14.00,2013-10-30 13:05:00,
2013-10-30 09:11:00,49.5,43.6,30.09,ENE,68,0.0,0.0,80,0.00,,---,0.00,VWS V14.00,2013-10-30 13:11:00,
2013-10-30 09:16:00,49.8,43.9,30.09,NNW,338,0.0,0.0,80,0.00,,---,0.00,VWS V14.00,2013-10-30 13:16:00,
2013-10-30 09:22:00,50.2,43.9,30.09,WNW,292,0.0,1.1,79,0.00,,---,0.00,VWS V14.00,2013-10-30 13:22:00,
2013-10-30 09:27:00,50.9,44.6,30.09,WNW,292,0.0,0.0,79,0.00,,---,0.00,VWS V14.00,2013-10-30 13:27:00,
2013-10-30 09:32:00,51.1,44.8,30.09,WNW,292,0.0,0.0,79,0.00,,---,0.00,VWS V14.00,2013-10-30 13:32:00,
2013-10-30 09:38:00,51.4,45.2,30.09,WNW,292,0.0,0.0,79,0.00,,---,0.00,VWS V14.00,2013-10-30 13:38:00,
2013-10-30 09:43:00,51.4,45.2,30.09,WNW,292,0.0,0.0,79,0.00,,---,0.00,VWS V14.00,2013-10-30 13:43:00,
2013-10-30 09:48:00,51.6,45.3,30.09,WNW,292,0.0,0.0,79,0.00,,---,0.00,VWS V14.00,2013-10-30 13:48:00,
2013-10-30 09:55:00,51.6,45.3,30.09,West,270,1.6,1.6,79,0.00,,---,0.00,VWS V14.00,2013-10-30 13:55:00,
2013-10-30 10:00:00,51.8,45.5,30.09,West,270,0.0,0.0,79,0.00,,---,0.00,VWS V14.00,2013-10-30 14:00:00,
2013-10-30 10:05:00,52.0,46.0,30.09,West,270,2.5,2.5,80,0.00,,---,0.00,VWS V14.00,2013-10-30 14:05:00,
2013-10-30 10:11:00,52.2,46.2,30.09,West,270,1.6,1.6,80,0.00,,---,0.00,VWS V14.00,2013-10-30 14:11:00,
2013-10-30 10:16:00,52.2,46.8,30.09,WNW,292,2.0,2.0,82,0.00,,---,0.00,VWS V14.00,2013-10-30 14:16:00,
2013-10-30 10:21:00,52.3,47.0,30.09,WNW,292,1.3,1.3,82,0.00,,---,0.00,VWS V14.00,2013-10-30 14:21:00,
2013-10-30 10:26:00,52.5,47.2,30.06,West,270,1.3,1.3,82,0.00,,---,0.00,VWS V14.00,2013-10-30 14:26:00,
2013-10-30 10:32:00,53.1,48.0,30.06,West,270,0.0,0.0,83,0.00,,---,0.00,VWS V14.00,2013-10-30 14:32:00,
2013-10-30 10:37:00,53.4,48.4,30.06,West,270,0.0,0.9,83,0.00,,---,0.00,VWS V14.00,2013-10-30 14:37:00,
2013-10-30 10:44:00,53.6,48.6,30.06,NW,315,1.1,1.1,83,0.00,,---,0.00,VWS V14.00,2013-10-30 14:44:00,
2013-10-30 10:49:00,53.8,48.8,30.06,WSW,248,1.6,2.0,83,0.00,,---,0.00,VWS V14.00,2013-10-30 14:49:00,
2013-10-30 10:55:00,54.0,48.9,30.06,West,270,0.0,0.0,83,0.00,,---,0.00,VWS V14.00,2013-10-30 14:55:00,
2013-10-30 11:00:00,54.1,49.1,30.06,WSW,248,2.7,2.7,83,0.00,,---,0.00,VWS V14.00,2013-10-30 15:00:00,
2013-10-30 11:06:00,54.3,49.6,30.06,West,270,0.9,1.1,84,0.00,,---,0.00,VWS V14.00,2013-10-30 15:06:00,
2013-10-30 11:12:00,54.3,49.6,30.06,WNW,292,1.1,1.1,84,0.00,,---,0.00,VWS V14.00,2013-10-30 15:12:00,
2013-10-30 11:18:00,54.3,49.9,30.06,NW,315,1.3,1.3,85,0.00,,---,0.00,VWS V14.00,2013-10-30 15:18:00,
2013-10-30 11:23:00,54.5,50.1,30.06,WNW,292,1.6,1.6,85,0.00,,---,0.00,VWS V14.00,2013-10-30 15:23:00,
2013-10-30 11:29:00,54.9,50.4,30.06,WNW,292,1.1,1.1,85,0.00,,---,0.00,VWS V14.00,2013-10-30 15:29:00,
2013-10-30 11:34:00,55.0,50.6,30.06,WNW,292,0.0,0.0,85,0.00,,---,0.00,VWS V14.00,2013-10-30 15:34:00,
2013-10-30 11:40:00,55.6,51.2,30.06,WNW,292,0.0,0.9,85,0.00,,---,0.00,VWS V14.00,2013-10-30 15:40:00,
2013-10-30 11:45:00,55.9,51.5,30.06,WNW,292,0.9,0.9,85,0.00,,---,0.00,VWS V14.00,2013-10-30 15:45:00,
2013-10-30 11:50:00,55.9,51.5,30.06,WNW,292,0.0,0.0,85,0.00,,---,0.00,VWS V14.00,2013-10-30 15:50:00,
2013-10-30 11:55:00,56.1,51.7,30.06,WNW,292,0.0,1.3,85,0.00,,---,0.00,VWS V14.00,2013-10-30 15:55:00,
2013-10-30 12:01:00,56.1,51.7,30.06,WNW,292,0.0,0.0,85,0.00,,---,0.00,VWS V14.00,2013-10-30 16:01:00,
2013-10-30 12:06:00,55.9,51.8,30.06,WNW,292,0.9,1.1,86,0.00,,---,0.00,VWS V14.00,2013-10-30 16:06:00,
2013-10-30 12:11:00,55.9,51.8,30.06,WNW,292,0.0,0.0,86,0.00,,---,0.00,VWS V14.00,2013-10-30 16:11:00,
2013-10-30 12:17:00,55.9,52.4,30.06,WNW,292,0.0,0.0,88,0.00,,---,0.00,VWS V14.00,2013-10-30 16:17:00,
2013-10-30 12:23:00,55.9,52.1,30.06,ENE,68,1.1,1.1,87,0.00,,---,0.00,VWS V14.00,2013-10-30 16:23:00,
2013-10-30 12:29:00,55.8,52.0,30.06,ENE,68,0.0,0.9,87,0.00,,---,0.00,VWS V14.00,2013-10-30 16:29:00,
2013-10-30 12:34:00,55.8,52.0,30.06,ENE,68,0.0,0.0,87,0.00,,---,0.00,VWS V14.00,2013-10-30 16:34:00,
2013-10-30 12:39:00,55.8,52.0,30.06,ENE,68,0.0,0.0,87,0.00,,---,0.00,VWS V14.00,2013-10-30 16:39:00,
2013-10-30 12:45:00,55.9,52.1,30.06,ENE,68,0.0,0.0,87,0.00,,---,0.00,VWS V14.00,2013-10-30 16:45:00,
2013-10-30 12:50:00,55.9,52.4,30.06,ENE,68,1.1,1.1,88,0.00,,---,0.00,VWS V14.00,2013-10-30 16:50:00,
2013-10-30 12:55:00,55.9,52.4,30.03,ENE,68,0.0,0.0,88,0.00,,---,0.00,VWS V14.00,2013-10-30 16:55:00,
2013-10-30 13:00:00,56.1,52.6,30.03,ENE,68,0.0,0.0,88,0.00,,---,0.00,VWS V14.00,2013-10-30 17:00:00,
2013-10-30 13:06:00,56.1,52.6,30.03,ENE,68,0.0,0.0,88,0.00,,---,0.00,VWS V14.00,2013-10-30 17:06:00,
2013-10-30 13:11:00,56.3,52.8,30.03,ENE,68,0.0,0.0,88,0.00,,---,0.00,VWS V14.00,2013-10-30 17:11:00,
2013-10-30 13:18:00,56.5,53.3,30.03,ENE,68,0.0,0.0,89,0.00,,---,0.00,VWS V14.00,2013-10-30 17:18:00,
2013-10-30 13:23:00,56.7,53.5,30.03,NNW,338,0.0,0.9,89,0.00,,---,0.00,VWS V14.00,2013-10-30 17:23:00,
2013-10-30 13:28:00,56.7,53.5,30.03,ENE,68,0.0,0.0,89,0.00,,---,0.00,VWS V14.00,2013-10-30 17:28:00,
2013-10-30 13:34:00,56.7,53.5,30.03,ENE,68,0.0,0.0,89,0.00,,---,0.00,VWS V14.00,2013-10-30 17:34:00,
2013-10-30 13:39:00,56.8,53.6,30.03,ENE,68,0.0,0.0,89,0.00,,---,0.00,VWS V14.00,2013-10-30 17:39:00,
2013-10-30 13:46:00,56.8,53.6,30.03,ENE,68,0.0,0.0,89,0.00,,---,0.00,VWS V14.00,2013-10-30 17:46:00,
2013-10-30 13:51:00,56.8,53.6,30.03,West,270,1.1,1.3,89,0.00,,---,0.00,VWS V14.00,2013-10-30 17:51:00,
2013-10-30 13:56:00,56.8,53.6,30.03,West,270,1.1,1.1,89,0.00,,---,0.00,VWS V14.00,2013-10-30 17:56:00,
2013-10-30 14:02:00,56.8,53.6,30.03,West,270,0.0,0.0,89,0.00,,---,0.00,VWS V14.00,2013-10-30 18:02:00,
2013-10-30 14:07:00,56.8,53.6,30.03,WSW,248,1.1,1.1,89,0.00,,---,0.00,VWS V14.00,2013-10-30 18:07:00,
2013-10-30 14:12:00,56.8,53.6,30.03,NW,315,1.6,3.4,89,0.00,,---,0.00,VWS V14.00,2013-10-30 18:12:00,
2013-10-30 14:17:00,57.0,53.8,30.03,West,270,1.1,1.1,89,0.00,,---,0.00,VWS V14.00,2013-10-30 18:17:00,
2013-10-30 14:23:00,57.0,53.8,30.03,WSW,248,4.3,4.3,89,0.00,,---,0.00,VWS V14.00,2013-10-30 18:23:00,
2013-10-30 14:28:00,57.0,54.1,30.03,SSW,202,0.9,0.9,90,0.00,,---,0.00,VWS V14.00,2013-10-30 18:28:00,
2013-10-30 14:35:00,57.0,53.8,30.03,South,180,0.9,2.2,89,0.00,,---,0.00,VWS V14.00,2013-10-30 18:35:00,
2013-10-30 14:40:00,57.0,53.8,30.03,West,270,2.5,2.5,89,0.00,,---,0.00,VWS V14.00,2013-10-30 18:40:00,
2013-10-30 14:46:00,57.0,53.8,30.03,West,270,1.6,3.8,89,0.00,,---,0.00,VWS V14.00,2013-10-30 18:46:00,
2013-10-30 14:51:00,57.2,53.7,30.03,WSW,248,2.5,2.5,88,0.00,,---,0.00,VWS V14.00,2013-10-30 18:51:00,
2013-10-30 14:57:00,57.2,53.7,30.00,NW,315,2.0,3.4,88,0.00,,---,0.00,VWS V14.00,2013-10-30 18:57:00,
2013-10-30 15:03:00,57.6,54.3,30.00,WNW,292,3.4,3.6,89,0.00,,---,0.00,VWS V14.00,2013-10-30 19:03:00,
2013-10-30 15:09:00,57.6,54.3,30.00,WSW,248,2.5,2.5,89,0.00,,---,0.00,VWS V14.00,2013-10-30 19:09:00,
2013-10-30 15:14:00,57.7,54.2,30.00,West,270,2.7,2.7,88,0.00,,---,0.00,VWS V14.00,2013-10-30 19:14:00,
2013-10-30 15:19:00,57.7,53.9,30.00,WSW,248,2.9,3.6,87,0.00,,---,0.00,VWS V14.00,2013-10-30 19:19:00,
2013-10-30 15:25:00,57.9,53.8,30.00,WSW,248,3.1,3.1,86,0.00,,---,0.00,VWS V14.00,2013-10-30 19:25:00,
2013-10-30 15:30:00,57.9,53.8,30.00,SSW,202,2.0,3.1,86,0.00,,---,0.00,VWS V14.00,2013-10-30 19:30:00,
2013-10-30 15:35:00,57.9,53.4,30.00,WSW,248,4.9,4.9,85,0.00,,---,0.00,VWS V14.00,2013-10-30 19:35:00,
2013-10-30 15:40:00,57.9,53.4,30.00,WSW,248,4.9,4.9,85,0.00,,---,0.00,VWS V14.00,2013-10-30 19:40:00,
2013-10-30 15:46:00,57.9,53.1,30.00,WSW,248,3.1,4.0,84,0.00,,---,0.00,VWS V14.00,2013-10-30 19:46:00,
2013-10-30 15:51:00,57.9,53.1,30.00,West,270,0.0,0.0,84,0.00,,---,0.00,VWS V14.00,2013-10-30 19:51:00,
2013-10-30 15:56:00,57.9,53.1,30.00,WNW,292,1.3,1.3,84,0.00,,---,0.00,VWS V14.00,2013-10-30 19:56:00,
2013-10-30 16:02:00,58.1,53.3,30.00,WNW,292,3.1,3.1,84,0.00,,---,0.00,VWS V14.00,2013-10-30 20:02:00,
2013-10-30 16:07:00,57.9,53.1,30.00,NW,315,3.1,3.4,84,0.00,,---,0.00,VWS V14.00,2013-10-30 20:07:00,
2013-10-30 16:14:00,57.7,53.0,30.00,West,270,3.1,3.1,84,0.00,,---,0.00,VWS V14.00,2013-10-30 20:14:00,
2013-10-30 16:19:00,57.9,53.1,30.00,West,270,6.5,6.5,84,0.00,,---,0.00,VWS V14.00,2013-10-30 20:19:00,
2013-10-30 16:24:00,57.7,53.0,30.00,WNW,292,3.1,4.0,84,0.00,,---,0.00,VWS V14.00,2013-10-30 20:24:00,
2013-10-30 16:29:00,57.7,52.6,30.00,SW,225,2.2,3.6,83,0.00,,---,0.00,VWS V14.00,2013-10-30 20:29:00,
2013-10-30 16:34:00,57.7,52.6,30.00,WSW,248,2.7,3.1,83,0.00,,---,0.00,VWS V14.00,2013-10-30 20:34:00,
2013-10-30 16:40:00,57.6,52.4,30.00,WSW,248,0.0,2.5,83,0.00,,---,0.00,VWS V14.00,2013-10-30 20:40:00,
2013-10-30 16:46:00,57.6,52.4,30.00,WNW,292,2.0,2.0,83,0.00,,---,0.00,VWS V14.00,2013-10-30 20:46:00,
2013-10-30 16:51:00,57.6,52.8,30.00,WSW,248,1.3,1.3,84,0.00,,---,0.00,VWS V14.00,2013-10-30 20:51:00,
2013-10-30 16:57:00,57.6,52.4,30.00,West,270,0.0,0.0,83,0.00,,---,0.00,VWS V14.00,2013-10-30 20:57:00,
2013-10-30 17:02:00,57.4,52.3,30.00,West,270,0.0,2.7,83,0.00,,---,0.00,VWS V14.00,2013-10-30 21:02:00,
2013-10-30 17:07:00,57.2,52.4,30.00,WNW,292,1.3,1.3,84,0.00,,---,0.00,VWS V14.00,2013-10-30 21:07:00,
2013-10-30 17:13:00,57.2,52.4,30.00,WSW,248,1.6,1.6,84,0.00,,---,0.00,VWS V14.00,2013-10-30 21:13:00,
2013-10-30 17:18:00,57.0,52.2,30.00,SW,225,0.0,1.3,84,0.00,,---,0.00,VWS V14.00,2013-10-30 21:18:00,
2013-10-30 17:25:00,56.8,52.4,30.00,WNW,292,2.5,2.5,85,0.00,,---,0.00,VWS V14.00,2013-10-30 21:25:00,
2013-10-30 17:30:00,56.8,52.4,30.00,WSW,248,0.0,0.0,85,0.00,,---,0.00,VWS V14.00,2013-10-30 21:30:00,
2013-10-30 17:35:00,56.8,52.4,30.00,West,270,0.0,0.0,85,0.00,,---,0.00,VWS V14.00,2013-10-30 21:35:00,
2013-10-30 17:41:00,56.7,52.2,30.00,WSW,248,1.3,1.3,85,0.00,,---,0.00,VWS V14.00,2013-10-30 21:41:00,
2013-10-30 17:46:00,56.7,52.2,30.00,West,270,1.6,3.8,85,0.00,,---,0.00,VWS V14.00,2013-10-30 21:46:00,
2013-10-30 17:51:00,56.5,52.3,30.00,WNW,292,0.9,1.3,86,0.00,,---,0.00,VWS V14.00,2013-10-30 21:51:00,
2013-10-30 17:57:00,56.5,52.3,30.00,West,270,0.0,0.9,86,0.00,,---,0.00,VWS V14.00,2013-10-30 21:57:00,
2013-10-30 18:02:00,56.5,52.3,30.00,WSW,248,0.0,0.0,86,0.00,,---,0.00,VWS V14.00,2013-10-30 22:02:00,
2013-10-30 18:07:00,56.5,52.3,30.00,West,270,1.3,1.3,86,0.00,,---,0.00,VWS V14.00,2013-10-30 22:07:00,
2013-10-30 18:13:00,56.3,52.2,30.00,SSW,202,1.1,1.1,86,0.00,,---,0.00,VWS V14.00,2013-10-30 22:13:00,
2013-10-30 18:18:00,56.3,52.2,30.00,SSW,202,0.0,0.9,86,0.00,,---,0.00,VWS V14.00,2013-10-30 22:18:00,
2013-10-30 18:23:00,56.3,52.2,30.00,West,270,2.5,2.5,86,0.00,,---,0.00,VWS V14.00,2013-10-30 22:23:00,
2013-10-30 18:28:00,56.3,52.2,30.00,WSW,248,0.0,0.9,86,0.00,,---,0.00,VWS V14.00,2013-10-30 22:28:00,
2013-10-30 18:33:00,56.3,52.5,30.00,SSW,202,0.9,0.9,87,0.00,,---,0.00,VWS V14.00,2013-10-30 22:33:00,
2013-10-30 18:39:00,56.3,52.5,30.00,SSW,202,0.0,0.0,87,0.00,,---,0.00,VWS V14.00,2013-10-30 22:39:00,
2013-10-30 18:44:00,56.1,52.3,30.00,SSW,202,0.0,0.0,87,0.00,,---,0.00,VWS V14.00,2013-10-30 22:44:00,
2013-10-30 18:50:00,56.1,52.3,30.00,SW,225,0.9,0.9,87,0.00,,---,0.00,VWS V14.00,2013-10-30 22:50:00,
2013-10-30 18:56:00,56.1,52.3,30.00,West,270,1.1,1.1,87,0.00,,---,0.00,VWS V14.00,2013-10-30 22:56:00,
2013-10-30 19:02:00,55.9,52.1,30.00,West,270,0.0,0.0,87,0.00,,---,0.00,VWS V14.00,2013-10-30 23:02:00,
2013-10-30 19:09:00,55.9,52.1,30.00,West,270,0.0,0.0,87,0.00,,---,0.00,VWS V14.00,2013-10-30 23:09:00,
2013-10-30 19:14:00,55.9,52.1,30.00,West,270,0.0,0.0,87,0.00,,---,0.00,VWS V14.00,2013-10-30 23:14:00,
2013-10-30 19:20:00,55.9,52.1,30.00,West,270,0.0,0.0,87,0.00,,---,0.00,VWS V14.00,2013-10-30 23:20:00,
2013-10-30 19:25:00,55.8,52.0,30.03,WSW,248,0.0,0.0,87,0.00,,---,0.00,VWS V14.00,2013-10-30 23:25:00,
2013-10-30 19:30:00,55.6,51.8,30.03,WSW,248,0.0,0.0,87,0.00,,---,0.00,VWS V14.00,2013-10-30 23:30:00,
2013-10-30 19:35:00,55.6,51.8,30.03,WSW,248,0.0,0.0,87,0.00,,---,0.00,VWS V14.00,2013-10-30 23:35:00,
2013-10-30 19:40:00,55.4,51.6,30.03,WSW,248,0.0,0.0,87,0.00,,---,0.00,VWS V14.00,2013-10-30 23:40:00,
2013-10-30 19:46:00,55.2,51.7,30.03,WSW,248,0.0,0.0,88,0.00,,---,0.00,VWS V14.00,2013-10-30 23:46:00,
2013-10-30 19:52:00,55.0,51.6,30.03,WSW,248,0.0,0.0,88,0.00,,---,0.00,VWS V14.00,2013-10-30 23:52:00,
2013-10-30 19:57:00,54.7,51.2,30.03,WSW,248,0.0,0.0,88,0.00,,---,0.00,VWS V14.00,2013-10-30 23:57:00,
2013-10-30 20:04:00,54.7,51.2,30.03,WSW,248,0.0,0.0,88,0.00,,---,0.00,VWS V14.00,2013-10-31 00:04:00,
2013-10-30 20:09:00,54.5,51.0,30.03,WSW,248,0.0,0.0,88,0.00,,---,0.00,VWS V14.00,2013-10-31 00:09:00,
2013-10-30 20:16:00,54.3,50.8,30.03,WSW,248,0.0,0.0,88,0.00,,---,0.00,VWS V14.00,2013-10-31 00:16:00,
2013-10-30 20:21:00,54.3,51.2,30.03,WSW,248,0.0,0.0,89,0.00,,---,0.00,VWS V14.00,2013-10-31 00:21:00,
2013-10-30 20:26:00,54.5,51.3,30.03,WSW,248,1.3,1.3,89,0.00,,---,0.00,VWS V14.00,2013-10-31 00:26:00,
2013-10-30 20:32:00,54.5,51.3,30.03,WSW,248,0.0,0.0,89,0.00,,---,0.00,VWS V14.00,2013-10-31 00:32:00,
2013-10-30 20:37:00,54.5,51.3,30.03,WSW,248,0.0,0.0,89,0.00,,---,0.00,VWS V14.00,2013-10-31 00:37:00,
2013-10-30 20:44:00,54.5,51.3,30.03,WSW,248,0.0,0.0,89,0.00,,---,0.00,VWS V14.00,2013-10-31 00:44:00,
2013-10-30 20:49:00,54.5,51.3,30.03,WSW,248,0.0,0.0,89,0.00,,---,0.00,VWS V14.00,2013-10-31 00:49:00,
2013-10-30 20:55:00,54.5,51.3,30.03,WSW,248,0.0,0.0,89,0.00,,---,0.00,VWS V14.00,2013-10-31 00:55:00,
2013-10-30 21:00:00,54.1,51.0,30.03,WSW,248,0.0,0.0,89,0.00,,---,0.00,VWS V14.00,2013-10-31 01:00:00,
2013-10-30 21:06:00,54.1,51.3,30.03,WSW,248,0.0,0.0,90,0.00,,---,0.00,VWS V14.00,2013-10-31 01:06:00,
2013-10-30 21:11:00,54.1,51.3,30.03,WSW,248,0.0,0.0,90,0.00,,---,0.00,VWS V14.00,2013-10-31 01:11:00,
2013-10-30 21:16:00,54.1,51.3,30.03,WSW,248,0.0,0.0,90,0.00,,---,0.00,VWS V14.00,2013-10-31 01:16:00,
2013-10-30 21:22:00,54.1,51.3,30.03,WSW,248,0.0,0.0,90,0.00,,---,0.00,VWS V14.00,2013-10-31 01:22:00,
2013-10-30 21:27:00,54.0,51.1,30.03,WSW,248,0.0,0.0,90,0.00,,---,0.00,VWS V14.00,2013-10-31 01:27:00,
2013-10-30 21:32:00,54.0,51.1,30.03,WSW,248,0.0,0.0,90,0.00,,---,0.00,VWS V14.00,2013-10-31 01:32:00,
2013-10-30 21:38:00,53.6,50.4,30.03,WSW,248,0.0,0.0,89,0.00,,---,0.00,VWS V14.00,2013-10-31 01:38:00,
2013-10-30 21:43:00,53.2,50.1,30.03,WSW,248,0.0,0.0,89,0.00,,---,0.00,VWS V14.00,2013-10-31 01:43:00,
2013-10-30 21:50:00,52.9,49.7,30.03,WSW,248,0.0,0.0,89,0.00,,---,0.00,VWS V14.00,2013-10-31 01:50:00,
2013-10-30 21:55:00,52.7,49.5,30.03,WSW,248,0.0,0.0,89,0.00,,---,0.00,VWS V14.00,2013-10-31 01:55:00,
2013-10-30 22:01:00,52.5,49.4,30.03,WSW,248,0.0,0.0,89,0.00,,---,0.00,VWS V14.00,2013-10-31 02:01:00,
2013-10-30 22:06:00,52.2,49.0,30.03,WSW,248,0.0,0.0,89,0.00,,---,0.00,VWS V14.00,2013-10-31 02:06:00,
2013-10-30 22:12:00,52.0,48.5,30.03,WSW,248,0.0,0.0,88,0.00,,---,0.00,VWS V14.00,2013-10-31 02:12:00,
2013-10-30 22:18:00,52.0,48.8,30.03,WSW,248,0.0,0.0,89,0.04,,---,0.04,VWS V14.00,2013-10-31 02:18:00,
2013-10-30 22:23:00,51.6,48.5,30.03,WSW,248,0.0,0.0,89,0.04,,---,0.04,VWS V14.00,2013-10-31 02:23:00,
2013-10-30 22:29:00,51.6,48.5,30.03,WSW,248,0.0,0.0,89,0.04,,---,0.04,VWS V14.00,2013-10-31 02:29:00,
2013-10-30 22:34:00,51.4,48.3,30.03,WSW,248,0.0,0.0,89,0.04,,---,0.04,VWS V14.00,2013-10-31 02:34:00,
2013-10-30 22:39:00,51.6,48.8,30.03,WSW,248,0.0,0.0,90,0.04,,---,0.04,VWS V14.00,2013-10-31 02:39:00,
2013-10-30 22:45:00,51.6,48.8,30.03,WSW,248,0.0,0.0,90,0.04,,---,0.04,VWS V14.00,2013-10-31 02:45:00,
2013-10-30 22:50:00,52.0,49.1,30.03,WSW,248,0.0,0.0,90,0.04,,---,0.04,VWS V14.00,2013-10-31 02:50:00,
2013-10-30 22:55:00,52.2,49.3,30.03,WSW,248,0.0,0.0,90,0.04,,---,0.04,VWS V14.00,2013-10-31 02:55:00,
2013-10-30 23:02:00,52.3,49.8,30.03,WSW,248,0.0,0.0,91,0.04,,---,0.04,VWS V14.00,2013-10-31 03:02:00,
2013-10-30 23:07:00,52.5,50.0,30.03,WSW,248,0.0,0.0,91,0.04,,---,0.04,VWS V14.00,2013-10-31 03:07:00,
2013-10-30 23:13:00,52.9,50.6,30.03,WSW,248,0.0,0.0,92,0.04,,---,0.04,VWS V14.00,2013-10-31 03:13:00,
2013-10-30 23:18:00,52.9,50.6,30.03,WSW,248,0.0,0.0,92,0.00,,---,0.04,VWS V14.00,2013-10-31 03:18:00,
2013-10-30 23:24:00,53.1,50.8,30.03,WSW,248,0.0,0.0,92,0.00,,---,0.04,VWS V14.00,2013-10-31 03:24:00,
2013-10-30 23:29:00,53.1,50.8,30.03,West,270,0.0,0.0,92,0.00,,---,0.04,VWS V14.00,2013-10-31 03:29:00,
2013-10-30 23:34:00,53.2,51.0,30.03,West,270,0.0,0.0,92,0.00,,---,0.04,VWS V14.00,2013-10-31 03:34:00,
2013-10-30 23:40:00,53.4,51.2,30.03,West,270,0.0,0.0,92,0.00,,---,0.04,VWS V14.00,2013-10-31 03:40:00,
2013-10-30 23:45:00,53.4,51.2,30.03,West,270,0.0,0.0,92,0.00,,---,0.04,VWS V14.00,2013-10-31 03:45:00,
2013-10-30 23:50:00,53.4,51.2,30.03,West,270,0.0,0.0,92,0.00,,---,0.04,VWS V14.00,2013-10-31 03:50:00,
2013-10-30 23:56:00,53.4,51.2,30.03,West,270,0.0,0.0,92,0.00,,---,0.04,VWS V14.00,2013-10-31 03:56:00,